sensor_id;sensor_type;location;lat;lon;timestamp;pressure;altitude;pressure_sealevel;temperature;humidity
57791;BME280;43621;51.798;21.588;2023-05-12T00:03:27;100574.55;;;10.25;41.64
57791;BME280;43621;51.798;21.588;2023-05-12T00:07:29;100578.25;;;10.20;41.80
57791;BME280;43621;51.798;21.588;2023-05-12T00:11:30;100579.11;;;10.16;41.83
57791;BME280;43621;51.798;21.588;2023-05-12T00:15:31;100576.88;;;10.11;42.07
57791;BME280;43621;51.798;21.588;2023-05-12T00:19:32;100578.68;;;10.06;41.91
57791;BME280;43621;51.798;21.588;2023-05-12T00:23:34;100581.88;;;10.01;42.27
57791;BME280;43621;51.798;21.588;2023-05-12T00:27:35;100582.33;;;9.95;42.50
57791;BME280;43621;51.798;21.588;2023-05-12T00:31:36;100586.32;;;9.88;42.52
57791;BME280;43621;51.798;21.588;2023-05-12T00:35:37;100588.14;;;9.83;42.69
57791;BME280;43621;51.798;21.588;2023-05-12T00:39:38;100588.23;;;9.80;42.51
57791;BME280;43621;51.798;21.588;2023-05-12T00:43:39;100584.73;;;9.75;42.65
57791;BME280;43621;51.798;21.588;2023-05-12T00:47:40;100584.27;;;9.70;42.69
57791;BME280;43621;51.798;21.588;2023-05-12T00:51:42;100592.11;;;9.66;42.94
57791;BME280;43621;51.798;21.588;2023-05-12T00:55:43;100593.83;;;9.62;43.01
57791;BME280;43621;51.798;21.588;2023-05-12T00:59:44;100593.85;;;9.57;43.38
57791;BME280;43621;51.798;21.588;2023-05-12T01:03:45;100597.94;;;9.52;43.36
57791;BME280;43621;51.798;21.588;2023-05-12T01:07:47;100599.40;;;9.46;42.96
57791;BME280;43621;51.798;21.588;2023-05-12T01:11:48;100597.55;;;9.41;43.33
57791;BME280;43621;51.798;21.588;2023-05-12T01:15:51;100603.39;;;9.38;43.40
57791;BME280;43621;51.798;21.588;2023-05-12T01:19:55;100603.98;;;9.34;43.38
57791;BME280;43621;51.798;21.588;2023-05-12T01:24:03;100601.17;;;9.30;43.29
57791;BME280;43621;51.798;21.588;2023-05-12T01:28:06;100605.66;;;9.26;43.52
57791;BME280;43621;51.798;21.588;2023-05-12T01:32:08;100606.27;;;9.22;43.82
57791;BME280;43621;51.798;21.588;2023-05-12T01:36:10;100604.36;;;9.18;43.78
57791;BME280;43621;51.798;21.588;2023-05-12T01:40:11;100609.24;;;9.13;44.28
57791;BME280;43621;51.798;21.588;2023-05-12T01:44:12;100608.75;;;9.08;44.38
57791;BME280;43621;51.798;21.588;2023-05-12T01:48:13;100609.62;;;9.03;44.45
57791;BME280;43621;51.798;21.588;2023-05-12T01:52:14;100614.85;;;8.98;44.15
57791;BME280;43621;51.798;21.588;2023-05-12T01:56:15;100617.23;;;8.94;43.96
57791;BME280;43621;51.798;21.588;2023-05-12T02:00:17;100616.80;;;8.91;43.82
57791;BME280;43621;51.798;21.588;2023-05-12T02:04:18;100615.27;;;8.88;44.32
57791;BME280;43621;51.798;21.588;2023-05-12T02:08:19;100615.80;;;8.86;44.12
57791;BME280;43621;51.798;21.588;2023-05-12T02:12:20;100613.17;;;8.79;44.59
57791;BME280;43621;51.798;21.588;2023-05-12T02:16:21;100616.51;;;8.74;44.38
57791;BME280;43621;51.798;21.588;2023-05-12T02:20:22;100621.09;;;8.71;44.49
57791;BME280;43621;51.798;21.588;2023-05-12T02:24:23;100623.41;;;8.68;44.68
57791;BME280;43621;51.798;21.588;2023-05-12T02:28:25;100624.35;;;8.64;44.52
57791;BME280;43621;51.798;21.588;2023-05-12T02:32:26;100628.09;;;8.61;44.40
57791;BME280;43621;51.798;21.588;2023-05-12T02:36:28;100628.72;;;8.59;44.47
57791;BME280;43621;51.798;21.588;2023-05-12T02:40:29;100629.77;;;8.55;44.65
57791;BME280;43621;51.798;21.588;2023-05-12T02:44:30;100631.08;;;8.51;44.73
57791;BME280;43621;51.798;21.588;2023-05-12T02:48:31;100632.87;;;8.50;44.74
57791;BME280;43621;51.798;21.588;2023-05-12T02:52:32;100633.67;;;8.49;45.07
57791;BME280;43621;51.798;21.588;2023-05-12T02:56:33;100637.85;;;8.47;45.23
57791;BME280;43621;51.798;21.588;2023-05-12T03:00:35;100641.43;;;8.45;45.31
57791;BME280;43621;51.798;21.588;2023-05-12T03:04:36;100642.56;;;8.44;45.53
57791;BME280;43621;51.798;21.588;2023-05-12T03:08:37;100640.52;;;8.46;45.64
57791;BME280;43621;51.798;21.588;2023-05-12T03:12:38;100640.92;;;8.47;45.64
57791;BME280;43621;51.798;21.588;2023-05-12T03:16:39;100640.91;;;8.50;45.73
57791;BME280;43621;51.798;21.588;2023-05-12T03:20:40;100645.52;;;8.51;45.47
57791;BME280;43621;51.798;21.588;2023-05-12T03:24:41;100647.57;;;8.54;45.54
57791;BME280;43621;51.798;21.588;2023-05-12T03:28:43;100646.39;;;8.58;45.50
57791;BME280;43621;51.798;21.588;2023-05-12T03:32:44;100649.48;;;8.61;45.47
57791;BME280;43621;51.798;21.588;2023-05-12T03:36:46;100651.05;;;8.63;45.96
57791;BME280;43621;51.798;21.588;2023-05-12T03:40:48;100651.31;;;8.64;46.00
57791;BME280;43621;51.798;21.588;2023-05-12T03:44:52;100657.19;;;8.68;45.80
57791;BME280;43621;51.798;21.588;2023-05-12T03:48:54;100662.47;;;8.72;46.07
57791;BME280;43621;51.798;21.588;2023-05-12T03:52:55;100665.31;;;8.76;46.06
57791;BME280;43621;51.798;21.588;2023-05-12T03:56:56;100666.42;;;8.82;45.99
57791;BME280;43621;51.798;21.588;2023-05-12T04:00:57;100662.56;;;8.87;46.30
57791;BME280;43621;51.798;21.588;2023-05-12T04:04:59;100670.61;;;8.91;46.86
57791;BME280;43621;51.798;21.588;2023-05-12T04:09:01;100672.91;;;8.97;46.53
57791;BME280;43621;51.798;21.588;2023-05-12T04:13:02;100676.05;;;9.05;46.46
57791;BME280;43621;51.798;21.588;2023-05-12T04:17:03;100675.24;;;9.13;46.28
57791;BME280;43621;51.798;21.588;2023-05-12T04:21:04;100674.67;;;9.23;46.42
57791;BME280;43621;51.798;21.588;2023-05-12T04:25:06;100680.95;;;9.33;46.54
57791;BME280;43621;51.798;21.588;2023-05-12T04:29:07;100685.19;;;9.41;46.34
57791;BME280;43621;51.798;21.588;2023-05-12T04:33:08;100679.59;;;9.51;46.42
57791;BME280;43621;51.798;21.588;2023-05-12T04:37:10;100681.14;;;9.67;46.04
57791;BME280;43621;51.798;21.588;2023-05-12T04:41:11;100686.73;;;9.84;46.24
57791;BME280;43621;51.798;21.588;2023-05-12T04:45:12;100688.80;;;10.03;46.00
57791;BME280;43621;51.798;21.588;2023-05-12T04:49:13;100690.44;;;10.24;45.84
57791;BME280;43621;51.798;21.588;2023-05-12T04:53:14;100692.66;;;10.43;45.67
57791;BME280;43621;51.798;21.588;2023-05-12T04:57:16;100692.08;;;10.61;45.32
57791;BME280;43621;51.798;21.588;2023-05-12T05:01:17;100695.60;;;10.80;45.01
57791;BME280;43621;51.798;21.588;2023-05-12T05:05:18;100698.73;;;11.01;44.75
57791;BME280;43621;51.798;21.588;2023-05-12T05:09:20;100700.73;;;11.20;44.51
57791;BME280;43621;51.798;21.588;2023-05-12T05:13:21;100697.15;;;11.33;44.13
57791;BME280;43621;51.798;21.588;2023-05-12T05:17:22;100701.67;;;11.50;43.91
57791;BME280;43621;51.798;21.588;2023-05-12T05:21:23;100695.94;;;11.71;43.67
57791;BME280;43621;51.798;21.588;2023-05-12T05:25:24;100703.43;;;11.92;43.30
57791;BME280;43621;51.798;21.588;2023-05-12T05:29:26;100707.22;;;12.13;43.13
57791;BME280;43621;51.798;21.588;2023-05-12T05:33:28;100712.08;;;12.35;42.99
57791;BME280;43621;51.798;21.588;2023-05-12T05:37:29;100714.52;;;12.57;42.54
57791;BME280;43621;51.798;21.588;2023-05-12T05:41:30;100708.93;;;12.79;42.22
57791;BME280;43621;51.798;21.588;2023-05-12T05:45:31;100712.39;;;13.11;41.77
57791;BME280;43621;51.798;21.588;2023-05-12T05:49:33;100712.67;;;13.43;41.30
57791;BME280;43621;51.798;21.588;2023-05-12T05:53:34;100712.58;;;13.78;40.70
57791;BME280;43621;51.798;21.588;2023-05-12T05:57:35;100713.48;;;14.13;40.19
57791;BME280;43621;51.798;21.588;2023-05-12T06:01:36;100718.89;;;14.52;39.71
57791;BME280;43621;51.798;21.588;2023-05-12T06:05:37;100722.60;;;15.04;39.04
57791;BME280;43621;51.798;21.588;2023-05-12T06:09:38;100720.80;;;15.71;38.62
57791;BME280;43621;51.798;21.588;2023-05-12T06:13:39;100725.04;;;16.84;38.09
57791;BME280;43621;51.798;21.588;2023-05-12T06:17:40;100722.61;;;19.83;34.90
57791;BME280;43621;51.798;21.588;2023-05-12T06:21:41;100720.48;;;23.87;28.14
57791;BME280;43621;51.798;21.588;2023-05-12T06:25:43;100723.91;;;26.96;24.68
57791;BME280;43621;51.798;21.588;2023-05-12T06:29:44;100723.90;;;29.11;22.40
57791;BME280;43621;51.798;21.588;2023-05-12T06:33:45;100726.31;;;31.17;19.84
57791;BME280;43621;51.798;21.588;2023-05-12T06:37:46;100721.15;;;31.78;17.93
57791;BME280;43621;51.798;21.588;2023-05-12T06:41:50;100731.69;;;32.76;17.77
57791;BME280;43621;51.798;21.588;2023-05-12T06:45:51;100736.70;;;33.99;17.61
57791;BME280;43621;51.798;21.588;2023-05-12T06:49:52;100734.62;;;34.81;15.81
57791;BME280;43621;51.798;21.588;2023-05-12T06:53:54;100739.15;;;34.70;14.48
57791;BME280;43621;51.798;21.588;2023-05-12T06:57:55;100738.89;;;33.14;14.86
57791;BME280;43621;51.798;21.588;2023-05-12T07:01:56;100742.02;;;30.82;16.46
57791;BME280;43621;51.798;21.588;2023-05-12T07:05:57;100740.21;;;30.51;16.85
57791;BME280;43621;51.798;21.588;2023-05-12T07:09:58;100742.49;;;31.22;15.83
57791;BME280;43621;51.798;21.588;2023-05-12T07:13:59;100738.48;;;31.99;15.33
57791;BME280;43621;51.798;21.588;2023-05-12T07:18:00;100746.45;;;32.68;14.58
57791;BME280;43621;51.798;21.588;2023-05-12T07:22:01;100749.77;;;33.61;14.05
57791;BME280;43621;51.798;21.588;2023-05-12T07:26:04;100751.89;;;34.38;13.05
57791;BME280;43621;51.798;21.588;2023-05-12T07:30:07;100745.12;;;35.29;13.04
57791;BME280;43621;51.798;21.588;2023-05-12T07:34:08;100745.42;;;36.34;12.08
57791;BME280;43621;51.798;21.588;2023-05-12T07:38:09;100746.45;;;36.88;11.46
57791;BME280;43621;51.798;21.588;2023-05-12T07:42:10;100743.77;;;36.88;11.25
57791;BME280;43621;51.798;21.588;2023-05-12T07:46:11;100742.05;;;37.61;10.68
57791;BME280;43621;51.798;21.588;2023-05-12T07:50:12;100743.20;;;38.88;10.50
57791;BME280;43621;51.798;21.588;2023-05-12T07:54:14;100747.90;;;38.80;9.92
57791;BME280;43621;51.798;21.588;2023-05-12T07:58:15;100739.88;;;39.05;9.69
57791;BME280;43621;51.798;21.588;2023-05-12T08:02:16;100737.84;;;38.84;9.45
57791;BME280;43621;51.798;21.588;2023-05-12T08:06:17;100744.92;;;38.53;9.53
57791;BME280;43621;51.798;21.588;2023-05-12T08:10:18;100738.61;;;38.54;9.43
57791;BME280;43621;51.798;21.588;2023-05-12T08:14:19;100749.54;;;38.84;9.12
57791;BME280;43621;51.798;21.588;2023-05-12T08:18:22;100752.02;;;38.84;8.64
57791;BME280;43621;51.798;21.588;2023-05-12T08:22:23;100756.63;;;39.07;8.41
57791;BME280;43621;51.798;21.588;2023-05-12T08:26:24;100747.30;;;39.47;8.10
57791;BME280;43621;51.798;21.588;2023-05-12T08:30:26;100749.17;;;39.15;8.20
57791;BME280;43621;51.798;21.588;2023-05-12T08:34:27;100762.47;;;38.54;8.18
57791;BME280;43621;51.798;21.588;2023-05-12T08:38:28;100754.65;;;38.82;8.04
57791;BME280;43621;51.798;21.588;2023-05-12T08:42:36;100755.02;;;39.22;7.57
57791;BME280;43621;51.798;21.588;2023-05-12T08:46:42;100749.54;;;39.45;7.75
57791;BME280;43621;51.798;21.588;2023-05-12T08:50:44;100739.82;;;39.66;7.60
57791;BME280;43621;51.798;21.588;2023-05-12T08:54:48;100736.46;;;40.06;7.62
57791;BME280;43621;51.798;21.588;2023-05-12T08:58:50;100740.13;;;40.66;7.28
57791;BME280;43621;51.798;21.588;2023-05-12T09:02:52;100745.23;;;41.20;6.96
57791;BME280;43621;51.798;21.588;2023-05-12T09:06:55;100742.36;;;41.30;6.78
57791;BME280;43621;51.798;21.588;2023-05-12T09:10:58;100745.86;;;41.68;6.00
57791;BME280;43621;51.798;21.588;2023-05-12T09:15:04;100757.05;;;41.28;6.01
57791;BME280;43621;51.798;21.588;2023-05-12T09:19:07;100752.19;;;40.92;6.23
57791;BME280;43621;51.798;21.588;2023-05-12T09:23:19;100742.71;;;41.13;6.29
57791;BME280;43621;51.798;21.588;2023-05-12T09:27:25;100747.12;;;41.29;6.32
57791;BME280;43621;51.798;21.588;2023-05-12T09:31:27;100750.16;;;41.25;6.13
57791;BME280;43621;51.798;21.588;2023-05-12T09:35:28;100742.00;;;40.84;5.95
57791;BME280;43621;51.798;21.588;2023-05-12T09:39:30;100723.42;;;40.47;6.24
57791;BME280;43621;51.798;21.588;2023-05-12T09:43:31;100712.65;;;41.04;6.18
57791;BME280;43621;51.798;21.588;2023-05-12T09:47:34;100714.17;;;41.54;6.09
57791;BME280;43621;51.798;21.588;2023-05-12T09:51:36;100725.69;;;41.87;5.62
57791;BME280;43621;51.798;21.588;2023-05-12T09:55:37;100725.20;;;41.44;5.99
57791;BME280;43621;51.798;21.588;2023-05-12T09:59:39;100716.50;;;41.11;6.27
57791;BME280;43621;51.798;21.588;2023-05-12T10:03:42;100719.91;;;41.68;6.13
57791;BME280;43621;51.798;21.588;2023-05-12T10:07:47;100716.74;;;41.71;6.15
57791;BME280;43621;51.798;21.588;2023-05-12T10:11:51;100720.39;;;42.39;5.99
57791;BME280;43621;51.798;21.588;2023-05-12T10:15:54;100719.20;;;42.18;5.74
57791;BME280;43621;51.798;21.588;2023-05-12T10:19:57;100721.55;;;42.13;5.96
57791;BME280;43621;51.798;21.588;2023-05-12T10:23:59;100708.26;;;41.84;6.08
57791;BME280;43621;51.798;21.588;2023-05-12T10:28:03;100719.29;;;41.05;6.17
57791;BME280;43621;51.798;21.588;2023-05-12T10:32:05;100723.05;;;40.76;6.21
57791;BME280;43621;51.798;21.588;2023-05-12T10:36:19;100718.59;;;40.61;6.41
57791;BME280;43621;51.798;21.588;2023-05-12T10:40:23;100701.05;;;40.20;6.71
57791;BME280;43621;51.798;21.588;2023-05-12T10:44:26;100695.91;;;40.75;6.78
57791;BME280;43621;51.798;21.588;2023-05-12T10:48:28;100700.30;;;40.64;6.70
57791;BME280;43621;51.798;21.588;2023-05-12T10:52:30;100707.61;;;39.87;6.76
57791;BME280;43621;51.798;21.588;2023-05-12T11:00:42;100707.77;;;37.46;7.80
57791;BME280;43621;51.798;21.588;2023-05-12T11:05:08;100713.09;;;33.20;9.66
57791;BME280;43621;51.798;21.588;2023-05-12T11:09:10;100700.58;;;30.30;11.40
57791;BME280;43621;51.798;21.588;2023-05-12T11:13:12;100701.70;;;28.57;12.66
57791;BME280;43621;51.798;21.588;2023-05-12T11:17:13;100705.88;;;27.04;13.71
57791;BME280;43621;51.798;21.588;2023-05-12T11:21:15;100710.55;;;25.68;14.69
57791;BME280;43621;51.798;21.588;2023-05-12T11:25:17;100712.60;;;24.65;15.70
57791;BME280;43621;51.798;21.588;2023-05-12T11:29:18;100695.27;;;23.78;16.20
57791;BME280;43621;51.798;21.588;2023-05-12T11:33:21;100692.37;;;23.34;16.77
57791;BME280;43621;51.798;21.588;2023-05-12T11:37:22;100707.10;;;23.04;17.32
57791;BME280;43621;51.798;21.588;2023-05-12T11:41:24;100703.55;;;22.63;17.55
57791;BME280;43621;51.798;21.588;2023-05-12T11:45:27;100693.91;;;22.39;17.64
57791;BME280;43621;51.798;21.588;2023-05-12T11:49:30;100689.17;;;22.36;17.92
57791;BME280;43621;51.798;21.588;2023-05-12T11:53:31;100694.73;;;22.31;17.88
57791;BME280;43621;51.798;21.588;2023-05-12T11:57:35;100694.88;;;22.25;17.98
57791;BME280;43621;51.798;21.588;2023-05-12T12:01:43;100685.54;;;22.19;17.92
57791;BME280;43621;51.798;21.588;2023-05-12T12:06:00;100670.77;;;22.05;18.24
57791;BME280;43621;51.798;21.588;2023-05-12T12:10:16;100683.20;;;21.99;18.75
57791;BME280;43621;51.798;21.588;2023-05-12T12:14:17;100680.54;;;22.00;19.05
57791;BME280;43621;51.798;21.588;2023-05-12T12:18:18;100698.40;;;21.94;18.85
57791;BME280;43621;51.798;21.588;2023-05-12T12:22:20;100693.71;;;21.85;18.89
57791;BME280;43621;51.798;21.588;2023-05-12T12:26:22;100686.98;;;21.91;18.91
57791;BME280;43621;51.798;21.588;2023-05-12T12:30:23;100682.30;;;21.90;18.88
57791;BME280;43621;51.798;21.588;2023-05-12T12:34:24;100675.02;;;21.87;19.13
57791;BME280;43621;51.798;21.588;2023-05-12T12:38:25;100663.17;;;21.89;19.04
57791;BME280;43621;51.798;21.588;2023-05-12T12:42:27;100661.46;;;21.91;19.09
57791;BME280;43621;51.798;21.588;2023-05-12T12:46:28;100690.30;;;21.91;19.30
57791;BME280;43621;51.798;21.588;2023-05-12T12:50:30;100671.95;;;21.73;19.08
57791;BME280;43621;51.798;21.588;2023-05-12T12:54:32;100661.54;;;21.69;19.25
57791;BME280;43621;51.798;21.588;2023-05-12T12:58:33;100664.30;;;21.79;19.73
57791;BME280;43621;51.798;21.588;2023-05-12T13:02:35;100657.48;;;22.03;19.42
57791;BME280;43621;51.798;21.588;2023-05-12T13:06:36;100655.27;;;22.18;19.17
57791;BME280;43621;51.798;21.588;2023-05-12T13:10:37;100650.20;;;22.29;19.08
57791;BME280;43621;51.798;21.588;2023-05-12T13:14:38;100647.46;;;22.51;19.26
57791;BME280;43621;51.798;21.588;2023-05-12T13:18:40;100656.45;;;22.50;18.94
57791;BME280;43621;51.798;21.588;2023-05-12T13:22:42;100650.00;;;22.35;19.16
57791;BME280;43621;51.798;21.588;2023-05-12T13:26:43;100645.58;;;22.16;19.56
57791;BME280;43621;51.798;21.588;2023-05-12T13:30:44;100648.80;;;22.07;19.74
57791;BME280;43621;51.798;21.588;2023-05-12T13:34:45;100646.73;;;22.12;19.92
57791;BME280;43621;51.798;21.588;2023-05-12T13:38:47;100643.80;;;21.88;20.00
57791;BME280;43621;51.798;21.588;2023-05-12T13:42:48;100639.75;;;21.53;20.47
57791;BME280;43621;51.798;21.588;2023-05-12T13:46:49;100643.05;;;21.27;20.87
57791;BME280;43621;51.798;21.588;2023-05-12T13:50:50;100644.48;;;21.09;20.89
57791;BME280;43621;51.798;21.588;2023-05-12T13:54:51;100635.58;;;21.16;20.90
57791;BME280;43621;51.798;21.588;2023-05-12T13:58:52;100627.78;;;21.23;20.95
57791;BME280;43621;51.798;21.588;2023-05-12T14:02:54;100629.49;;;21.22;21.32
57791;BME280;43621;51.798;21.588;2023-05-12T14:06:56;100640.27;;;20.96;21.29
57791;BME280;43621;51.798;21.588;2023-05-12T14:10:58;100638.10;;;20.67;21.54
57791;BME280;43621;51.798;21.588;2023-05-12T14:14:59;100629.65;;;20.61;21.87
57791;BME280;43621;51.798;21.588;2023-05-12T14:19:00;100624.43;;;20.79;21.93
57791;BME280;43621;51.798;21.588;2023-05-12T14:23:01;100622.52;;;20.64;21.70
57791;BME280;43621;51.798;21.588;2023-05-12T14:27:03;100626.52;;;20.23;21.78
57791;BME280;43621;51.798;21.588;2023-05-12T14:31:04;100623.83;;;19.84;22.01
57791;BME280;43621;51.798;21.588;2023-05-12T14:35:06;100619.42;;;19.82;22.40
57791;BME280;43621;51.798;21.588;2023-05-12T14:39:09;100625.94;;;19.96;22.36
57791;BME280;43621;51.798;21.588;2023-05-12T14:43:10;100618.98;;;19.95;21.86
57791;BME280;43621;51.798;21.588;2023-05-12T14:47:11;100612.63;;;20.04;22.05
57791;BME280;43621;51.798;21.588;2023-05-12T14:51:12;100612.52;;;20.20;22.00
57791;BME280;43621;51.798;21.588;2023-05-12T14:55:13;100607.72;;;20.26;21.78
57791;BME280;43621;51.798;21.588;2023-05-12T14:59:16;100606.88;;;20.31;22.16
57791;BME280;43621;51.798;21.588;2023-05-12T15:03:18;100613.12;;;20.38;22.19
57791;BME280;43621;51.798;21.588;2023-05-12T15:07:20;100607.96;;;20.41;22.15
57791;BME280;43621;51.798;21.588;2023-05-12T15:11:22;100611.19;;;20.45;22.26
57791;BME280;43621;51.798;21.588;2023-05-12T15:15:23;100612.58;;;20.49;22.41
57791;BME280;43621;51.798;21.588;2023-05-12T15:19:24;100607.91;;;20.49;22.30
57791;BME280;43621;51.798;21.588;2023-05-12T15:23:25;100609.39;;;20.61;22.27
57791;BME280;43621;51.798;21.588;2023-05-12T15:27:27;100610.18;;;20.68;21.88
57791;BME280;43621;51.798;21.588;2023-05-12T15:31:28;100603.23;;;20.55;21.91
57791;BME280;43621;51.798;21.588;2023-05-12T15:35:29;100601.34;;;20.42;22.08
57791;BME280;43621;51.798;21.588;2023-05-12T15:39:31;100606.73;;;20.41;22.07
57791;BME280;43621;51.798;21.588;2023-05-12T15:43:32;100604.34;;;20.37;22.01
57791;BME280;43621;51.798;21.588;2023-05-12T15:47:33;100600.14;;;20.21;22.18
57791;BME280;43621;51.798;21.588;2023-05-12T15:51:35;100597.64;;;19.89;22.46
57791;BME280;43621;51.798;21.588;2023-05-12T15:55:39;100595.48;;;19.57;22.54
57791;BME280;43621;51.798;21.588;2023-05-12T15:59:40;100595.71;;;19.39;22.87
57791;BME280;43621;51.798;21.588;2023-05-12T16:03:41;100599.11;;;19.22;23.22
57791;BME280;43621;51.798;21.588;2023-05-12T16:07:42;100595.41;;;19.10;23.56
57791;BME280;43621;51.798;21.588;2023-05-12T16:11:43;100595.45;;;19.00;23.63
57791;BME280;43621;51.798;21.588;2023-05-12T16:15:45;100594.81;;;18.93;23.94
57791;BME280;43621;51.798;21.588;2023-05-12T16:19:46;100593.36;;;18.90;24.21
57791;BME280;43621;51.798;21.588;2023-05-12T16:23:47;100593.11;;;18.89;24.04
57791;BME280;43621;51.798;21.588;2023-05-12T16:27:49;100594.11;;;18.88;24.00
57791;BME280;43621;51.798;21.588;2023-05-12T16:31:50;100596.39;;;18.87;23.98
57791;BME280;43621;51.798;21.588;2023-05-12T16:35:51;100596.73;;;18.84;24.07
57791;BME280;43621;51.798;21.588;2023-05-12T16:39:53;100594.84;;;18.80;24.03
57791;BME280;43621;51.798;21.588;2023-05-12T16:43:54;100604.15;;;18.75;24.34
57791;BME280;43621;51.798;21.588;2023-05-12T16:47:55;100597.90;;;18.68;24.42
57791;BME280;43621;51.798;21.588;2023-05-12T16:51:56;100596.88;;;18.62;24.53
57791;BME280;43621;51.798;21.588;2023-05-12T16:55:58;100600.60;;;18.57;24.53
57791;BME280;43621;51.798;21.588;2023-05-12T16:59:59;100599.34;;;18.52;24.66
57791;BME280;43621;51.798;21.588;2023-05-12T17:04:03;100597.00;;;18.46;24.74
57791;BME280;43621;51.798;21.588;2023-05-12T17:08:04;100602.40;;;18.41;24.98
57791;BME280;43621;51.798;21.588;2023-05-12T17:12:05;100604.14;;;18.34;25.07
57791;BME280;43621;51.798;21.588;2023-05-12T17:16:07;100604.29;;;18.26;25.25
57791;BME280;43621;51.798;21.588;2023-05-12T17:20:09;100604.37;;;18.17;25.34
57791;BME280;43621;51.798;21.588;2023-05-12T17:24:11;100604.71;;;18.08;25.40
57791;BME280;43621;51.798;21.588;2023-05-12T17:28:12;100605.66;;;17.98;25.62
57791;BME280;43621;51.798;21.588;2023-05-12T17:32:13;100609.11;;;17.88;25.99
57791;BME280;43621;51.798;21.588;2023-05-12T17:36:15;100612.38;;;17.76;26.07
57791;BME280;43621;51.798;21.588;2023-05-12T17:40:18;100613.45;;;17.64;26.42
57791;BME280;43621;51.798;21.588;2023-05-12T17:44:19;100614.02;;;17.50;26.60
57791;BME280;43621;51.798;21.588;2023-05-12T17:48:20;100615.24;;;17.38;27.26
57791;BME280;43621;51.798;21.588;2023-05-12T17:52:22;100616.85;;;17.25;28.05
57791;BME280;43621;51.798;21.588;2023-05-12T17:56:23;100613.50;;;17.12;28.59
57791;BME280;43621;51.798;21.588;2023-05-12T18:00:24;100626.30;;;16.98;28.82
57791;BME280;43621;51.798;21.588;2023-05-12T18:04:26;100630.02;;;16.80;29.27
57791;BME280;43621;51.798;21.588;2023-05-12T18:08:27;100631.73;;;16.59;29.81
57791;BME280;43621;51.798;21.588;2023-05-12T18:12:28;100634.02;;;16.39;30.22
57791;BME280;43621;51.798;21.588;2023-05-12T18:16:29;100638.36;;;16.21;30.52
57791;BME280;43621;51.798;21.588;2023-05-12T18:20:30;100642.82;;;16.04;31.10
57791;BME280;43621;51.798;21.588;2023-05-12T18:24:32;100641.59;;;15.85;31.51
57791;BME280;43621;51.798;21.588;2023-05-12T18:28:33;100647.00;;;15.67;31.99
57791;BME280;43621;51.798;21.588;2023-05-12T18:32:34;100653.41;;;15.48;32.25
57791;BME280;43621;51.798;21.588;2023-05-12T18:36:35;100654.25;;;15.31;32.78
57791;BME280;43621;51.798;21.588;2023-05-12T18:40:37;100658.54;;;15.15;33.16
57791;BME280;43621;51.798;21.588;2023-05-12T18:44:38;100658.40;;;15.01;33.36
57791;BME280;43621;51.798;21.588;2023-05-12T18:48:41;100661.46;;;14.86;33.62
57791;BME280;43621;51.798;21.588;2023-05-12T18:52:42;100663.16;;;14.74;33.91
57791;BME280;43621;51.798;21.588;2023-05-12T18:56:43;100668.42;;;14.65;34.10
57791;BME280;43621;51.798;21.588;2023-05-12T19:00:47;100670.05;;;14.54;34.37
57791;BME280;43621;51.798;21.588;2023-05-12T19:04:48;100671.21;;;14.44;34.62
57791;BME280;43621;51.798;21.588;2023-05-12T19:08:49;100669.61;;;14.34;34.89
57791;BME280;43621;51.798;21.588;2023-05-12T19:12:50;100668.79;;;14.25;35.08
57791;BME280;43621;51.798;21.588;2023-05-12T19:16:51;100670.52;;;14.16;35.06
57791;BME280;43621;51.798;21.588;2023-05-12T19:20:53;100671.13;;;14.09;35.25
57791;BME280;43621;51.798;21.588;2023-05-12T19:24:54;100673.34;;;14.03;35.31
57791;BME280;43621;51.798;21.588;2023-05-12T19:28:55;100674.48;;;13.96;35.31
57791;BME280;43621;51.798;21.588;2023-05-12T19:32:57;100670.34;;;13.92;35.53
57791;BME280;43621;51.798;21.588;2023-05-12T19:36:58;100670.89;;;13.88;35.66
57791;BME280;43621;51.798;21.588;2023-05-12T19:41:00;100671.54;;;13.83;35.61
57791;BME280;43621;51.798;21.588;2023-05-12T19:45:03;100670.77;;;13.78;35.70
57791;BME280;43621;51.798;21.588;2023-05-12T19:49:04;100669.98;;;13.73;35.99
57791;BME280;43621;51.798;21.588;2023-05-12T19:53:05;100670.38;;;13.67;36.07
57791;BME280;43621;51.798;21.588;2023-05-12T19:57:06;100670.99;;;13.57;36.22
57791;BME280;43621;51.798;21.588;2023-05-12T20:01:09;100671.32;;;13.46;36.60
57791;BME280;43621;51.798;21.588;2023-05-12T20:05:11;100673.94;;;13.38;36.98
57791;BME280;43621;51.798;21.588;2023-05-12T20:09:13;100673.20;;;13.31;37.16
57791;BME280;43621;51.798;21.588;2023-05-12T20:13:14;100674.88;;;13.25;37.26
57791;BME280;43621;51.798;21.588;2023-05-12T20:17:15;100679.45;;;13.21;37.53
57791;BME280;43621;51.798;21.588;2023-05-12T20:21:16;100682.01;;;13.13;37.55
57791;BME280;43621;51.798;21.588;2023-05-12T20:25:17;100679.78;;;13.03;37.69
57791;BME280;43621;51.798;21.588;2023-05-12T20:29:19;100682.33;;;12.94;37.83
57791;BME280;43621;51.798;21.588;2023-05-12T20:33:20;100680.14;;;12.85;38.03
57791;BME280;43621;51.798;21.588;2023-05-12T20:37:22;100677.34;;;12.75;38.08
57791;BME280;43621;51.798;21.588;2023-05-12T20:41:23;100679.89;;;12.65;38.27
57791;BME280;43621;51.798;21.588;2023-05-12T20:45:24;100681.14;;;12.55;38.36
57791;BME280;43621;51.798;21.588;2023-05-12T20:49:26;100677.75;;;12.47;38.61
57791;BME280;43621;51.798;21.588;2023-05-12T20:53:27;100680.50;;;12.44;38.76
57791;BME280;43621;51.798;21.588;2023-05-12T20:57:28;100683.67;;;12.42;38.97